This is the latest recevied weather packets stored in our database for station/object KF0JHJ. If no packets are shown the sender has not sent any weather packets the latest 1 day(s).
| Time | Temp. | Humidity | Pressure | Rain* | Wind** | Luminosity | Snow |
|---|---|---|---|---|---|---|---|
| 1778034635 | 5° C | 57% | 1010.8 hPa | - | 0.89 m/s, 0° | 0 W/m² | - |
| 1778034329 | 5° C | 56% | 1010.6 hPa | - | 0 m/s | 0 W/m² | - |
| 1778034026 | 5° C | 56% | 1010.5 hPa | - | 0.89 m/s, 345° | 0 W/m² | - |
| 1778033723 | 5° C | 56% | 1010.4 hPa | - | 0 m/s | 0 W/m² | - |
| 1778033420 | 5.56° C | 54% | 1010.5 hPa | - | 0 m/s | 0 W/m² | - |
| 1778033118 | 5.56° C | 54% | 1010.3 hPa | - | 0 m/s | 0 W/m² | - |
| 1778032815 | 5.56° C | 53% | 1010.1 hPa | - | 0.45 m/s, 7° | 0 W/m² | - |
| 1778032513 | 6.11° C | 52% | 1010.2 hPa | - | 0.45 m/s, 348° | 0 W/m² | - |
| 1778032209 | 6.11° C | 52% | 1010.2 hPa | - | 0.45 m/s, 83° | 0 W/m² | - |
| 1778031907 | 6.11° C | 52% | 1010.1 hPa | - | 0 m/s | 0 W/m² | - |
| 1778031603 | 6.11° C | 51% | 1009.8 hPa | - | 0 m/s | 0 W/m² | - |
| 1778031301 | 6.67° C | 51% | 1010.2 hPa | - | 0 m/s | 0 W/m² | - |
| 1778030997 | 6.67° C | 51% | 1010 hPa | - | 1.34 m/s, 348° | 0 W/m² | - |
| 1778030693 | 6.67° C | 50% | 1009.8 hPa | - | 0.89 m/s, 26° | 0 W/m² | - |
| 1778030390 | 6.67° C | 50% | 1009.8 hPa | - | 0.89 m/s, 0° | 0 W/m² | - |
| 1778030088 | 7.22° C | 49% | 1009.8 hPa | - | 1.34 m/s, 318° | 2 W/m² | - |
| 1778029784 | 7.22° C | 49% | 1009.7 hPa | - | 0 m/s | 4 W/m² | - |
| 1778029483 | 7.78° C | 49% | 1009.6 hPa | - | 0.89 m/s, 356° | 6 W/m² | - |
| 1778029179 | 7.78° C | 48% | 1009.3 hPa | - | 1.34 m/s, 355° | 9 W/m² | - |
| 1778028877 | 7.78° C | 48% | 1009.4 hPa | - | 2.24 m/s, 355° | 16 W/m² | - |
| 1778028572 | 7.78° C | 48% | 1009.3 hPa | - | 0.89 m/s, 30° | 18 W/m² | - |
| 1778028270 | 7.78° C | 47% | 1009 hPa | - | 0 m/s | 17 W/m² | - |
| 1778027966 | 8.33° C | 47% | 1009.2 hPa | - | 1.34 m/s, 5° | 24 W/m² | - |
| 1778027663 | 8.33° C | 48% | 1009.2 hPa | - | 0 m/s | 22 W/m² | - |
| 1778027359 | 8.33° C | 48% | 1009.3 hPa | - | 0 m/s | 24 W/m² | - |
* Rain since midnight (hover to see other rain measurements)
** Current wind speed in m/s (hover to see current wind gust speed)